createdAt,value
2023-07-05T00:00:54.967Z,16.08
2023-07-05T00:03:21.570Z,16.10
2023-07-05T00:05:48.049Z,16.11
2023-07-05T00:08:14.708Z,16.11
2023-07-05T00:10:41.126Z,16.13
2023-07-05T00:13:07.616Z,16.14
2023-07-05T00:15:34.099Z,16.13
2023-07-05T00:18:00.699Z,16.02
2023-07-05T00:20:27.210Z,16.12
2023-07-05T00:22:53.854Z,16.21
2023-07-05T00:25:20.500Z,16.28
2023-07-05T00:27:46.930Z,16.32
2023-07-05T00:30:14.039Z,16.34
2023-07-05T00:32:40.512Z,16.36
2023-07-05T00:35:07.294Z,16.38
2023-07-05T00:37:33.942Z,16.36
2023-07-05T00:40:00.401Z,16.40
2023-07-05T00:42:26.855Z,16.42
2023-07-05T00:45:11.777Z,16.47
2023-07-05T00:47:42.717Z,16.50
2023-07-05T00:50:26.316Z,16.47
2023-07-05T00:52:52.903Z,16.45
2023-07-05T00:55:19.420Z,16.45
2023-07-05T00:57:46.118Z,16.63
2023-07-05T01:00:16.942Z,16.74
2023-07-05T01:02:45.486Z,16.86
2023-07-05T01:05:12.759Z,16.97
2023-07-05T01:07:39.273Z,17.02
2023-07-05T01:10:08.234Z,17.11
2023-07-05T01:12:46.852Z,17.11
2023-07-05T01:15:17.985Z,17.13
2023-07-05T01:18:04.785Z,17.17
2023-07-05T01:20:34.376Z,17.18
2023-07-05T01:23:22.693Z,17.21
2023-07-05T01:26:04.257Z,17.10
2023-07-05T01:28:58.687Z,17.00
2023-07-05T01:31:46.883Z,16.96
2023-07-05T01:34:22.711Z,16.97
2023-07-05T01:36:50.568Z,16.99
2023-07-05T01:39:17.192Z,17.01
2023-07-05T01:41:43.830Z,17.02
2023-07-05T01:44:10.508Z,17.03
2023-07-05T01:46:41.875Z,17.05
2023-07-05T01:49:20.796Z,17.12
2023-07-05T01:52:03.679Z,17.20
2023-07-05T01:55:01.102Z,17.21
2023-07-05T01:57:29.524Z,17.28
2023-07-05T02:00:05.410Z,17.29
2023-07-05T02:02:33.989Z,17.26
2023-07-05T02:05:01.507Z,17.35
2023-07-05T02:07:28.854Z,17.35
2023-07-05T02:09:56.764Z,17.36
2023-07-05T02:12:24.281Z,17.44
2023-07-05T02:14:50.702Z,17.43
2023-07-05T02:17:21.071Z,17.37
2023-07-05T02:19:47.577Z,17.36
2023-07-05T02:22:14.069Z,17.36
2023-07-05T02:24:40.501Z,17.36
2023-07-05T02:27:07.086Z,17.34
2023-07-05T02:29:33.531Z,17.37
2023-07-05T02:32:00.123Z,17.37
2023-07-05T02:34:27.420Z,17.36
2023-07-05T02:36:53.875Z,17.42
2023-07-05T02:39:21.608Z,17.39
2023-07-05T02:41:48.249Z,17.44
2023-07-05T02:44:14.742Z,17.46
2023-07-05T02:46:41.377Z,17.52
2023-07-05T02:49:07.879Z,17.58
2023-07-05T02:51:34.333Z,17.53
2023-07-05T02:54:00.816Z,17.53
2023-07-05T02:56:27.302Z,17.53
2023-07-05T02:58:53.801Z,17.51
2023-07-05T03:01:20.260Z,17.48
2023-07-05T03:03:46.718Z,17.47
2023-07-05T03:06:13.155Z,17.46
2023-07-05T03:08:39.779Z,17.31
2023-07-05T03:11:06.375Z,17.26
2023-07-05T03:13:34.005Z,17.25
2023-07-05T03:16:00.742Z,17.25
2023-07-05T03:18:27.767Z,17.23
2023-07-05T03:20:54.354Z,17.15
2023-07-05T03:23:20.941Z,17.06
2023-07-05T03:25:57.955Z,17.05
2023-07-05T03:28:25.209Z,17.00
2023-07-05T03:30:56.780Z,16.99
2023-07-05T03:33:23.368Z,16.96
2023-07-05T03:35:56.566Z,16.91
2023-07-05T03:38:24.790Z,16.93
2023-07-05T03:40:58.618Z,16.90
2023-07-05T03:43:26.255Z,16.89
2023-07-05T03:45:54.109Z,16.93
2023-07-05T03:48:21.606Z,16.95
2023-07-05T03:50:48.208Z,16.99
2023-07-05T03:53:14.680Z,16.91
2023-07-05T03:55:41.283Z,16.94
2023-07-05T03:58:07.746Z,16.98
2023-07-05T04:00:34.207Z,16.99
2023-07-05T04:03:00.941Z,16.93
2023-07-05T04:05:27.418Z,16.91
2023-07-05T04:07:53.832Z,16.86
2023-07-05T04:10:20.433Z,16.79
2023-07-05T04:12:46.835Z,16.77
2023-07-05T04:15:13.363Z,16.76
2023-07-05T04:17:39.880Z,16.75
2023-07-05T04:20:07.118Z,16.67
2023-07-05T04:22:36.032Z,16.70
2023-07-05T04:25:02.951Z,16.73
2023-07-05T04:27:29.374Z,16.73
2023-07-05T04:29:55.988Z,16.74
2023-07-05T04:32:22.601Z,16.79
2023-07-05T04:34:49.029Z,16.84
2023-07-05T04:37:19.549Z,16.91
2023-07-05T04:39:52.129Z,16.96
2023-07-05T04:42:18.530Z,17.01
2023-07-05T04:44:44.957Z,16.99
2023-07-05T04:47:11.446Z,16.99
2023-07-05T04:49:37.965Z,17.03
2023-07-05T04:52:04.869Z,17.02
2023-07-05T04:54:31.318Z,16.93
2023-07-05T04:56:57.906Z,16.89
2023-07-05T04:59:24.327Z,16.90
2023-07-05T05:01:50.785Z,16.89
2023-07-05T05:04:17.286Z,16.90
2023-07-05T05:06:44.348Z,16.96
2023-07-05T05:09:10.784Z,16.95
2023-07-05T05:11:37.181Z,16.86
2023-07-05T05:14:03.791Z,16.87
2023-07-05T05:16:30.489Z,16.87
2023-07-05T05:18:56.905Z,16.92
2023-07-05T05:21:23.573Z,17.00
2023-07-05T05:23:49.966Z,17.03
2023-07-05T05:26:16.412Z,17.10
2023-07-05T05:28:43.199Z,17.14
2023-07-05T05:31:10.786Z,17.17
2023-07-05T05:33:37.704Z,17.26
2023-07-05T05:36:04.706Z,17.32
2023-07-05T05:38:31.226Z,17.43
2023-07-05T05:41:02.423Z,17.52
2023-07-05T05:43:29.039Z,17.59
2023-07-05T05:45:55.457Z,17.63
2023-07-05T05:48:21.870Z,17.70
2023-07-05T05:50:48.889Z,17.82
2023-07-05T05:53:15.310Z,17.91
2023-07-05T05:55:41.806Z,17.98
2023-07-05T05:58:08.565Z,18.04
2023-07-05T06:00:35.195Z,18.07
2023-07-05T06:03:03.285Z,18.08
2023-07-05T06:05:30.022Z,18.17
2023-07-05T06:07:56.524Z,18.26
2023-07-05T06:10:23.411Z,18.31
2023-07-05T06:12:49.938Z,18.41
2023-07-05T06:15:16.709Z,18.58
2023-07-05T06:17:46.331Z,18.68
2023-07-05T06:20:15.757Z,18.79
2023-07-05T06:22:42.286Z,18.82
2023-07-05T06:25:11.199Z,18.83
2023-07-05T06:27:37.959Z,18.83
2023-07-05T06:30:05.181Z,18.88
2023-07-05T06:32:33.455Z,18.96
2023-07-05T06:35:00.122Z,19.00
2023-07-05T06:37:26.583Z,19.00
2023-07-05T06:39:53.028Z,18.96
2023-07-05T06:42:19.633Z,18.94
2023-07-05T06:44:46.048Z,18.90
2023-07-05T06:47:12.974Z,18.88
2023-07-05T06:49:41.896Z,18.80
2023-07-05T06:52:10.133Z,18.69
2023-07-05T06:54:36.558Z,18.42
2023-07-05T06:57:03.140Z,18.13
2023-07-05T06:59:29.568Z,17.89
2023-07-05T07:01:56.023Z,17.79
2023-07-05T07:04:23.129Z,17.76
2023-07-05T07:06:49.625Z,17.72
2023-07-05T07:09:16.064Z,17.55
2023-07-05T07:11:43.224Z,17.50
2023-07-05T07:14:09.809Z,17.46
2023-07-05T07:16:36.356Z,17.45
2023-07-05T07:19:02.824Z,17.42
2023-07-05T07:21:30.003Z,17.32
2023-07-05T07:23:56.462Z,17.27
2023-07-05T07:26:24.365Z,17.23
2023-07-05T07:28:52.263Z,17.26
2023-07-05T07:31:20.730Z,17.25
2023-07-05T07:33:47.470Z,17.22
2023-07-05T07:36:15.687Z,17.24
2023-07-05T07:38:42.381Z,17.28
2023-07-05T07:41:17.022Z,17.33
2023-07-05T07:43:43.714Z,17.39
2023-07-05T07:46:11.781Z,17.45
2023-07-05T07:48:40.161Z,17.49
2023-07-05T07:51:06.638Z,17.54
2023-07-05T07:53:33.099Z,17.56
2023-07-05T07:55:59.720Z,17.62
2023-07-05T07:58:26.158Z,17.68
2023-07-05T08:00:53.996Z,17.76
2023-07-05T08:03:20.798Z,17.80
2023-07-05T08:05:52.104Z,17.86
2023-07-05T08:08:19.391Z,17.93
2023-07-05T08:10:46.020Z,17.96
2023-07-05T08:13:12.482Z,18.02
2023-07-05T08:15:38.933Z,18.07
2023-07-05T08:18:05.593Z,18.12
2023-07-05T08:20:32.284Z,18.17
2023-07-05T08:22:58.981Z,18.24
2023-07-05T08:25:25.641Z,18.33
2023-07-05T08:27:52.174Z,18.39
2023-07-05T08:30:18.867Z,18.49
2023-07-05T08:32:45.476Z,18.58
2023-07-05T08:35:12.274Z,18.68
2023-07-05T08:37:38.833Z,18.72
2023-07-05T08:40:08.898Z,18.87
2023-07-05T08:42:48.829Z,18.95
2023-07-05T08:45:24.973Z,18.92
2023-07-05T08:47:54.063Z,18.93
2023-07-05T08:50:39.113Z,18.94
2023-07-05T08:53:16.083Z,19.04
2023-07-05T08:56:06.463Z,19.13
2023-07-05T08:58:40.109Z,19.29
2023-07-05T09:01:08.693Z,19.38
2023-07-05T09:03:35.384Z,19.46
2023-07-05T09:06:02.062Z,19.49
2023-07-05T09:08:38.114Z,19.60
2023-07-05T09:11:49.858Z,19.84
2023-07-05T09:14:19.450Z,20.18
2023-07-05T09:16:59.769Z,19.78
2023-07-05T09:19:31.799Z,19.33
2023-07-05T09:22:03.221Z,19.31
2023-07-05T09:24:37.430Z,19.31
2023-07-05T09:27:10.956Z,19.34
2023-07-05T09:29:48.565Z,19.38
2023-07-05T09:32:19.876Z,19.43
2023-07-05T09:34:51.323Z,19.50
2023-07-05T09:37:21.516Z,19.51
2023-07-05T09:39:54.143Z,19.52
2023-07-05T09:43:00.294Z,19.47
2023-07-05T09:45:27.492Z,19.54
2023-07-05T09:47:58.479Z,19.52
2023-07-05T09:50:24.924Z,19.68
2023-07-05T09:53:00.505Z,19.75
2023-07-05T09:55:32.222Z,19.69
2023-07-05T09:57:59.070Z,19.76
2023-07-05T10:00:28.009Z,19.92
2023-07-05T10:03:06.337Z,19.98
2023-07-05T10:05:33.015Z,19.88
2023-07-05T10:08:01.519Z,19.99
2023-07-05T10:10:29.089Z,19.99
2023-07-05T10:13:02.145Z,19.99
2023-07-05T10:15:28.607Z,19.90
2023-07-05T10:17:56.505Z,19.89
2023-07-05T10:20:25.745Z,20.01
2023-07-05T10:23:00.069Z,20.03
2023-07-05T10:25:27.039Z,20.01
2023-07-05T10:27:54.447Z,20.04
2023-07-05T10:30:21.629Z,20.24
2023-07-05T10:33:07.904Z,20.48
2023-07-05T10:35:34.749Z,20.69
2023-07-05T10:38:01.170Z,20.59
2023-07-05T10:40:27.775Z,20.81
2023-07-05T10:42:55.686Z,20.81
2023-07-05T10:45:22.570Z,20.68
2023-07-05T10:47:55.464Z,20.39
2023-07-05T10:50:27.662Z,20.06
2023-07-05T10:52:59.459Z,19.97
2023-07-05T10:55:34.925Z,20.01
2023-07-05T10:58:07.520Z,20.63
2023-07-05T11:00:39.518Z,20.89
2023-07-05T11:03:16.995Z,20.47
2023-07-05T11:05:46.352Z,20.48
2023-07-05T11:08:32.791Z,20.65
2023-07-05T11:11:04.597Z,20.76
2023-07-05T11:13:31.313Z,20.51
2023-07-05T11:15:59.842Z,20.27
2023-07-05T11:18:29.795Z,20.27
2023-07-05T11:20:57.459Z,20.20
2023-07-05T11:23:45.668Z,20.19
2023-07-05T11:26:12.669Z,20.23
2023-07-05T11:28:42.916Z,20.93
2023-07-05T11:31:10.429Z,21.08
2023-07-05T11:33:36.889Z,21.12
2023-07-05T11:36:09.700Z,21.00
2023-07-05T11:38:40.823Z,20.63
2023-07-05T11:41:08.350Z,20.41
2023-07-05T11:43:45.618Z,20.10
2023-07-05T11:46:40.214Z,20.38
2023-07-05T11:49:21.864Z,20.75
2023-07-05T11:51:54.489Z,21.30
2023-07-05T11:54:20.942Z,20.97
2023-07-05T11:56:47.523Z,20.59
2023-07-05T11:59:15.325Z,20.44
2023-07-05T12:01:42.406Z,20.40
2023-07-05T12:04:13.677Z,20.79
2023-07-05T12:06:41.699Z,21.19
2023-07-05T12:09:15.762Z,21.95
2023-07-05T12:11:42.606Z,23.14
2023-07-05T12:14:13.876Z,23.29
2023-07-05T12:16:40.711Z,22.28
2023-07-05T12:19:07.901Z,21.99
2023-07-05T12:21:34.687Z,21.79
2023-07-05T12:24:04.024Z,21.82
2023-07-05T12:26:32.257Z,21.57
2023-07-05T12:29:00.926Z,22.15
2023-07-05T12:31:28.799Z,21.72
2023-07-05T12:33:56.884Z,21.03
2023-07-05T12:36:23.774Z,20.85
2023-07-05T12:38:51.690Z,21.06
2023-07-05T12:41:21.150Z,21.58
2023-07-05T12:43:49.157Z,21.49
2023-07-05T12:46:23.783Z,21.12
2023-07-05T12:48:50.584Z,20.76
2023-07-05T12:51:20.987Z,20.99
2023-07-05T12:53:48.414Z,21.09
2023-07-05T12:56:19.202Z,20.74
2023-07-05T12:58:57.860Z,20.83
2023-07-05T13:01:30.303Z,20.93
2023-07-05T13:03:56.863Z,21.95
2023-07-05T13:06:23.627Z,22.04
2023-07-05T13:08:51.341Z,22.30
2023-07-05T13:11:20.217Z,23.12
2023-07-05T13:13:46.885Z,23.95
2023-07-05T13:16:20.395Z,24.04
2023-07-05T13:18:57.347Z,24.26
2023-07-05T13:21:23.801Z,23.67
2023-07-05T13:23:50.844Z,23.89
2023-07-05T13:26:37.072Z,23.99
2023-07-05T13:29:23.580Z,22.78
2023-07-05T13:31:50.983Z,22.27
2023-07-05T13:34:18.075Z,21.89
2023-07-05T13:36:45.467Z,22.24
2023-07-05T13:39:14.399Z,22.13
2023-07-05T13:41:41.165Z,22.74
2023-07-05T13:44:12.652Z,22.76
2023-07-05T13:46:39.727Z,22.79
2023-07-05T13:49:07.064Z,22.87
2023-07-05T13:51:34.085Z,23.50
2023-07-05T13:54:01.042Z,23.80
2023-07-05T13:56:27.545Z,23.04
2023-07-05T13:58:54.258Z,22.37
2023-07-05T14:03:59.626Z,22.54
2023-07-05T14:06:27.988Z,22.61
2023-07-05T14:08:54.452Z,23.83
2023-07-05T14:11:27.186Z,24.11
2023-07-05T14:13:55.338Z,24.91
2023-07-05T14:16:22.439Z,24.65
2023-07-05T14:18:49.368Z,24.47
2023-07-05T14:21:23.338Z,25.00
2023-07-05T14:23:49.786Z,24.81
2023-07-05T14:26:16.198Z,24.47
2023-07-05T14:28:43.175Z,25.28
2023-07-05T14:31:13.747Z,25.85
2023-07-05T14:33:40.688Z,24.46
2023-07-05T14:36:14.333Z,23.75
2023-07-05T14:38:41.021Z,23.12
2023-07-05T14:41:10.646Z,23.42
2023-07-05T14:43:37.069Z,23.21
2023-07-05T14:46:03.472Z,23.03
2023-07-05T14:48:29.922Z,22.74
2023-07-05T14:50:56.840Z,22.32
2023-07-05T14:53:28.640Z,22.28
2023-07-05T14:55:55.783Z,22.21
2023-07-05T14:58:22.624Z,22.09
2023-07-05T15:00:49.100Z,22.06
2023-07-05T15:03:37.725Z,22.10
2023-07-05T15:06:04.942Z,21.86
2023-07-05T15:08:32.511Z,21.99
2023-07-05T15:10:59.216Z,21.89
2023-07-05T15:13:33.276Z,22.44
2023-07-05T15:16:02.586Z,22.20
2023-07-05T15:18:30.512Z,22.06
2023-07-05T15:20:57.440Z,21.93
2023-07-05T15:23:25.462Z,21.58
2023-07-05T15:25:55.539Z,21.51
2023-07-05T15:28:22.027Z,21.42
2023-07-05T15:30:48.588Z,21.51
2023-07-05T15:33:15.917Z,21.45
2023-07-05T15:35:42.950Z,21.51
2023-07-05T15:38:09.768Z,21.47
2023-07-05T15:40:36.401Z,21.40
2023-07-05T15:43:02.857Z,21.45
2023-07-05T15:45:29.293Z,21.32
2023-07-05T15:47:56.731Z,21.13
2023-07-05T15:50:24.230Z,20.95
2023-07-05T15:52:51.747Z,21.28
2023-07-05T15:55:18.548Z,21.98
2023-07-05T15:57:45.115Z,23.93
2023-07-05T16:00:29.322Z,25.25
2023-07-05T16:03:00.631Z,25.86
2023-07-05T16:05:32.177Z,24.39
2023-07-05T16:07:58.703Z,25.52
2023-07-05T16:10:25.376Z,25.97
2023-07-05T16:12:57.209Z,24.15
2023-07-05T16:15:23.653Z,22.85
2023-07-05T16:17:50.428Z,22.30
2023-07-05T16:20:16.934Z,22.03
2023-07-05T16:22:43.408Z,21.88
2023-07-05T16:25:10.663Z,21.93
2023-07-05T16:27:37.255Z,21.97
2023-07-05T16:30:05.405Z,22.03
2023-07-05T16:32:32.091Z,22.02
2023-07-05T16:34:58.579Z,22.41
2023-07-05T16:37:25.473Z,21.98
2023-07-05T16:39:52.670Z,21.38
2023-07-05T16:42:19.189Z,21.14
2023-07-05T16:44:45.688Z,21.13
2023-07-05T16:47:13.335Z,20.95
2023-07-05T16:49:42.599Z,20.90
2023-07-05T16:52:09.237Z,20.85
2023-07-05T16:54:35.900Z,20.77
2023-07-05T16:57:05.301Z,20.68
2023-07-05T16:59:36.364Z,20.64
2023-07-05T17:02:02.906Z,20.69
2023-07-05T17:04:29.447Z,20.65
2023-07-05T17:06:56.056Z,20.74
2023-07-05T17:09:22.878Z,21.16
2023-07-05T17:11:49.615Z,21.44
2023-07-05T17:14:16.724Z,21.29
2023-07-05T17:16:43.282Z,21.13
2023-07-05T17:19:09.768Z,20.87
2023-07-05T17:21:36.210Z,20.69
2023-07-05T17:24:02.926Z,20.65
2023-07-05T17:26:29.348Z,20.57
2023-07-05T17:28:56.778Z,20.34
2023-07-05T17:31:24.443Z,20.24
2023-07-05T17:33:51.580Z,19.98
2023-07-05T17:36:20.734Z,19.94
2023-07-05T17:38:50.211Z,20.04
2023-07-05T17:41:17.334Z,20.25
2023-07-05T17:43:43.918Z,20.40
2023-07-05T17:46:23.955Z,20.18
2023-07-05T17:48:51.549Z,20.04
2023-07-05T17:51:18.306Z,19.97
2023-07-05T17:53:44.766Z,19.91
2023-07-05T17:56:12.545Z,19.94
2023-07-05T17:58:39.044Z,19.86
2023-07-05T18:01:09.931Z,19.75
2023-07-05T18:03:37.421Z,19.70
2023-07-05T18:06:05.229Z,19.69
2023-07-05T18:08:31.664Z,19.61
2023-07-05T18:11:01.488Z,19.70
2023-07-05T18:13:32.319Z,19.58
2023-07-05T18:16:00.245Z,19.52
2023-07-05T18:18:28.048Z,19.40
2023-07-05T18:20:54.739Z,19.16
2023-07-05T18:23:22.805Z,19.21
2023-07-05T18:25:51.442Z,19.14
2023-07-05T18:28:18.109Z,19.11
2023-07-05T18:30:51.909Z,18.88
2023-07-05T18:33:18.533Z,18.77
2023-07-05T18:35:46.697Z,18.69
2023-07-05T18:38:13.443Z,18.53
2023-07-05T18:40:39.855Z,18.50
2023-07-05T18:43:06.253Z,18.51
2023-07-05T18:45:32.724Z,18.53
2023-07-05T18:47:59.374Z,18.36
2023-07-05T18:50:27.589Z,18.22
2023-07-05T18:52:54.131Z,18.20
2023-07-05T18:55:20.537Z,18.14
2023-07-05T18:57:46.960Z,18.01
2023-07-05T19:00:13.964Z,17.98
2023-07-05T19:02:40.509Z,17.87
2023-07-05T19:05:08.096Z,17.74
2023-07-05T19:07:34.552Z,17.82
2023-07-05T19:10:02.048Z,17.79
2023-07-05T19:12:28.529Z,17.76
2023-07-05T19:14:55.260Z,17.67
2023-07-05T19:17:21.715Z,17.61
2023-07-05T19:19:48.116Z,17.51
2023-07-05T19:22:14.604Z,17.53
2023-07-05T19:24:41.765Z,17.44
2023-07-05T19:27:08.240Z,17.41
2023-07-05T19:29:34.806Z,17.32
2023-07-05T19:32:01.205Z,17.28
2023-07-05T19:34:27.685Z,17.25
2023-07-05T19:36:54.115Z,17.23
2023-07-05T19:39:20.565Z,17.16
2023-07-05T19:41:47.181Z,17.13
2023-07-05T19:44:13.593Z,17.15
2023-07-05T19:46:41.819Z,17.05
2023-07-05T19:49:09.036Z,16.96
2023-07-05T19:51:35.464Z,16.96
2023-07-05T19:54:01.871Z,16.97
2023-07-05T19:56:30.699Z,16.88
2023-07-05T19:58:59.157Z,16.80
2023-07-05T20:01:29.694Z,16.76
2023-07-05T20:03:56.281Z,16.71
2023-07-05T20:06:22.693Z,16.74
2023-07-05T20:08:53.797Z,16.75
2023-07-05T20:11:22.804Z,16.81
2023-07-05T20:13:49.564Z,16.82
2023-07-05T20:16:16.236Z,16.73
2023-07-05T20:18:42.748Z,16.67
2023-07-05T20:21:12.533Z,16.66
2023-07-05T20:23:42.971Z,16.63
2023-07-05T20:26:09.594Z,16.61
2023-07-05T20:28:36.139Z,16.63
2023-07-05T20:31:02.600Z,16.64
2023-07-05T20:33:29.752Z,16.52
2023-07-05T20:36:03.079Z,16.57
2023-07-05T20:38:30.069Z,16.49
2023-07-05T20:40:56.987Z,16.54
2023-07-05T20:43:23.851Z,16.47
2023-07-05T20:46:01.296Z,16.45
2023-07-05T20:48:27.993Z,16.35
2023-07-05T20:51:01.155Z,16.34
2023-07-05T20:53:28.075Z,16.29
2023-07-05T20:55:58.985Z,16.32
2023-07-05T20:58:29.824Z,16.26
2023-07-05T21:00:59.418Z,16.22
2023-07-05T21:03:26.121Z,16.26
2023-07-05T21:05:52.644Z,16.22
2023-07-05T21:08:19.145Z,16.24
2023-07-05T21:10:46.465Z,16.25
2023-07-05T21:13:15.344Z,16.18
2023-07-05T21:15:42.580Z,16.14
2023-07-05T21:18:10.246Z,16.18
2023-07-05T21:20:36.730Z,16.15
2023-07-05T21:23:03.684Z,16.15
2023-07-05T21:25:30.178Z,16.21
2023-07-05T21:27:56.608Z,16.06
2023-07-05T21:30:24.435Z,16.05
2023-07-05T21:32:50.997Z,16.10
2023-07-05T21:35:19.306Z,16.15
2023-07-05T21:37:45.945Z,16.16
2023-07-05T21:40:13.788Z,16.13
2023-07-05T21:42:40.872Z,16.22
2023-07-05T21:45:07.731Z,16.18
2023-07-05T21:47:34.375Z,16.15
2023-07-05T21:50:00.821Z,16.17
2023-07-05T21:52:27.318Z,16.24
2023-07-05T21:54:53.769Z,16.20
2023-07-05T21:57:20.172Z,16.13
2023-07-05T21:59:46.740Z,16.13
2023-07-05T22:02:13.247Z,16.16
2023-07-05T22:04:39.667Z,16.23
2023-07-05T22:07:07.203Z,16.11
2023-07-05T22:09:35.287Z,16.15
2023-07-05T22:12:03.627Z,16.15
2023-07-05T22:14:33.223Z,16.06
2023-07-05T22:16:59.857Z,16.11
2023-07-05T22:19:26.512Z,16.03
2023-07-05T22:21:55.261Z,16.02
2023-07-05T22:24:22.002Z,15.96
2023-07-05T22:26:49.103Z,15.96
2023-07-05T22:29:15.538Z,15.89
2023-07-05T22:31:42.129Z,15.79
2023-07-05T22:34:08.590Z,15.82
2023-07-05T22:36:34.995Z,15.76
2023-07-05T22:39:01.844Z,15.69
2023-07-05T22:41:28.742Z,15.72
2023-07-05T22:43:55.185Z,15.64
2023-07-05T22:46:22.108Z,15.59
2023-07-05T22:48:48.516Z,15.59
2023-07-05T22:51:14.937Z,15.43
2023-07-05T22:53:41.393Z,15.53
2023-07-05T22:56:09.119Z,15.53
2023-07-05T22:58:36.934Z,15.48
2023-07-05T23:01:05.062Z,15.52
2023-07-05T23:03:35.048Z,15.45
2023-07-05T23:06:03.051Z,15.49
2023-07-05T23:08:30.043Z,15.39
2023-07-05T23:16:46.519Z,15.42
2023-07-05T23:19:13.518Z,15.40
2023-07-05T23:21:40.219Z,15.44
2023-07-05T23:24:13.508Z,15.45
2023-07-05T23:26:40.962Z,15.36
2023-07-05T23:29:09.162Z,15.30
2023-07-05T23:31:38.137Z,15.23
2023-07-05T23:34:06.076Z,15.17
2023-07-05T23:36:32.721Z,15.11
2023-07-05T23:39:06.401Z,15.10
2023-07-05T23:41:33.173Z,15.14
2023-07-05T23:43:59.967Z,15.14
2023-07-05T23:46:32.415Z,15.18
2023-07-05T23:49:03.683Z,15.14
2023-07-05T23:51:30.201Z,15.17
2023-07-05T23:53:57.216Z,15.18
2023-07-05T23:56:25.057Z,15.28
2023-07-05T23:58:56.376Z,15.22
